Time;durP1;ratioP1;P1;durP2;ratioP2;P2;SDS_P1;SDS_P2;PMS_P1;PMS_P2;Temp;Humidity;BMP_temperature;BMP_pressure;BME280_temperature;BME280_humidity;BME280_pressure;Samples;Min_cycle;Max_cycle;Signal;HPM_P1;HPM_P2
2021/03/15 00:00:38;;;;;;;7.10;3.33;;;;;;;;;;5044571;28;20228;-66
2021/03/15 00:03:03;;;;;;;6.60;1.90;;;;;;;;;;5049120;28;20205;-66
2021/03/15 00:05:29;;;;;;;5.83;2.30;;;;;;;;;;5039384;28;20300;-66
2021/03/15 00:07:54;;;;;;;8.53;2.50;;;;;;;;;;5037010;28;20180;-66
2021/03/15 00:10:19;;;;;;;3.47;1.97;;;;;;;;;;5040640;28;20275;-64
2021/03/15 00:12:44;;;;;;;6.87;2.37;;;;;;;;;;5040731;28;20170;-66
2021/03/15 00:15:11;;;;;;;6.03;2.63;;;;;;;;;;5044686;28;20257;-66
2021/03/15 00:17:36;;;;;;;9.97;3.30;;;;;;;;;;5038426;28;20659;-66
2021/03/15 00:20:03;;;;;;;4.00;3.50;;;;;;;;;;5043267;28;20210;-66
2021/03/15 00:22:28;;;;;;;5.30;3.70;;;;;;;;;;5040919;28;20201;-66
2021/03/15 00:24:53;;;;;;;9.50;3.93;;;;;;;;;;5050578;28;20173;-66
2021/03/15 00:27:18;;;;;;;7.47;3.20;;;;;;;;;;5051742;28;20199;-66
2021/03/15 00:29:43;;;;;;;9.47;4.03;;;;;;;;;;5050656;28;20204;-66
2021/03/15 00:32:09;;;;;;;8.53;4.57;;;;;;;;;;5049986;28;20407;-66
2021/03/15 00:34:34;;;;;;;6.73;3.40;;;;;;;;;;5051424;28;20181;-66
2021/03/15 00:37:00;;;;;;;13.55;4.75;;;;;;;;;;5051126;28;20690;-67
2021/03/15 00:39:25;;;;;;;11.27;4.83;;;;;;;;;;5050807;28;20228;-66
2021/03/15 00:41:50;;;;;;;9.60;4.30;;;;;;;;;;5047576;28;20576;-66
2021/03/15 00:44:15;;;;;;;7.37;4.53;;;;;;;;;;5048337;28;20174;-66
2021/03/15 00:46:40;;;;;;;7.27;4.67;;;;;;;;;;5053053;28;20174;-66
2021/03/15 00:49:05;;;;;;;10.27;4.40;;;;;;;;;;5051882;28;20240;-66
2021/03/15 00:51:31;;;;;;;8.87;4.70;;;;;;;;;;5053144;28;20202;-66
2021/03/15 00:53:56;;;;;;;7.70;4.50;;;;;;;;;;5044797;28;20182;-66
2021/03/15 00:56:21;;;;;;;12.13;5.17;;;;;;;;;;5052512;28;20189;-68
2021/03/15 00:58:46;;;;;;;10.53;5.53;;;;;;;;;;5044381;28;20658;-66
2021/03/15 01:01:18;;;;;;;7.23;4.23;;;;;;;;;;5049066;28;20197;-66
2021/03/15 01:03:43;;;;;;;10.30;4.17;;;;;;;;;;5045395;28;20190;-66
2021/03/15 01:06:10;;;;;;;10.23;4.50;;;;;;;;;;5050829;28;20166;-65
2021/03/15 01:08:35;;;;;;;8.57;4.37;;;;;;;;;;5037688;28;20276;-66
2021/03/15 01:11:00;;;;;;;9.97;4.80;;;;;;;;;;5045486;28;20407;-65
2021/03/15 01:13:25;;;;;;;5.80;4.37;;;;;;;;;;5048501;28;20208;-66
2021/03/15 01:15:50;;;;;;;10.20;4.07;;;;;;;;;;5053360;28;20181;-65
2021/03/15 01:18:16;;;;;;;8.93;4.27;;;;;;;;;;5049775;28;20264;-66
2021/03/15 01:20:41;;;;;;;7.10;4.13;;;;;;;;;;5043313;28;20198;-64
2021/03/15 01:23:06;;;;;;;8.73;4.23;;;;;;;;;;5045914;28;20243;-66
2021/03/15 01:25:32;;;;;;;7.30;4.53;;;;;;;;;;5042153;28;20178;-66
2021/03/15 01:27:58;;;;;;;9.53;4.13;;;;;;;;;;5045886;28;20184;-66
2021/03/15 01:30:25;;;;;;;5.83;3.47;;;;;;;;;;5056642;28;20201;-69
2021/03/15 01:32:50;;;;;;;6.53;4.03;;;;;;;;;;5053435;28;20247;-66
2021/03/15 01:35:15;;;;;;;6.73;3.87;;;;;;;;;;5051632;28;20173;-66
2021/03/15 01:37:40;;;;;;;7.60;3.53;;;;;;;;;;5052595;28;20731;-65
2021/03/15 01:40:06;;;;;;;7.77;3.40;;;;;;;;;;5044451;28;20201;-66
2021/03/15 01:42:31;;;;;;;8.60;3.40;;;;;;;;;;5047358;28;20616;-66
2021/03/15 01:44:56;;;;;;;6.73;2.90;;;;;;;;;;5051707;28;20176;-65
2021/03/15 01:47:23;;;;;;;5.93;2.90;;;;;;;;;;5051748;28;20800;-66
2021/03/15 01:49:48;;;;;;;6.07;3.70;;;;;;;;;;5050665;28;20202;-66
2021/03/15 01:52:13;;;;;;;7.83;3.00;;;;;;;;;;5044975;28;20228;-65
2021/03/15 01:54:38;;;;;;;6.37;2.70;;;;;;;;;;5049276;28;20254;-66
2021/03/15 01:57:04;;;;;;;9.27;2.80;;;;;;;;;;5050240;28;20224;-66
2021/03/15 01:59:29;;;;;;;4.63;2.67;;;;;;;;;;5046897;28;20721;-65
2021/03/15 02:01:54;;;;;;;9.30;3.10;;;;;;;;;;5047306;28;20221;-65
2021/03/15 02:04:22;;;;;;;7.27;2.40;;;;;;;;;;5047117;28;20574;-66
2021/03/15 02:06:48;;;;;;;7.43;2.20;;;;;;;;;;5049594;28;20182;-68
2021/03/15 02:09:13;;;;;;;7.40;2.30;;;;;;;;;;5048781;28;20239;-66
2021/03/15 02:11:42;;;;;;;4.43;2.40;;;;;;;;;;5048174;28;20260;-65
2021/03/15 02:14:26;;;;;;;4.70;2.57;;;;;;;;;;5033119;28;20181;-65
2021/03/15 02:17:01;;;;;;;5.20;2.10;;;;;;;;;;5051176;28;20185;-65
2021/03/15 02:19:45;;;;;;;7.43;2.27;;;;;;;;;;5046603;28;20205;-65
2021/03/15 02:22:10;;;;;;;2.90;1.83;;;;;;;;;;5044607;28;20647;-65
2021/03/15 02:24:48;;;;;;;8.65;3.00;;;;;;;;;;5048798;28;20201;-68
2021/03/15 02:27:18;;;;;;;4.30;2.43;;;;;;;;;;5050463;28;20662;-66
2021/03/15 02:29:43;;;;;;;5.63;2.43;;;;;;;;;;5048518;28;20197;-65
2021/03/15 02:32:20;;;;;;;5.72;2.60;;;;;;;;;;5049610;28;20277;-66
2021/03/15 02:35:04;;;;;;;5.63;2.23;;;;;;;;;;5045584;28;20178;-66
2021/03/15 02:37:32;;;;;;;5.87;2.60;;;;;;;;;;5047375;28;20190;-66
2021/03/15 02:40:02;;;;;;;5.47;2.83;;;;;;;;;;5047011;28;20248;-64
2021/03/15 02:42:28;;;;;;;6.80;2.63;;;;;;;;;;5045892;28;20641;-65
2021/03/15 02:44:54;;;;;;;4.17;2.67;;;;;;;;;;5047624;28;20216;-65
2021/03/15 02:47:26;;;;;;;5.77;2.37;;;;;;;;;;5049236;28;20746;-65
2021/03/15 02:50:00;;;;;;;7.70;2.80;;;;;;;;;;5047563;28;20626;-66
2021/03/15 02:52:25;;;;;;;5.27;2.67;;;;;;;;;;5049224;28;20196;-65
2021/03/15 02:54:54;;;;;;;4.43;3.33;;;;;;;;;;5050431;28;20256;-66
2021/03/15 02:57:19;;;;;;;6.83;3.80;;;;;;;;;;5047990;28;20186;-66
2021/03/15 02:59:47;;;;;;;11.83;4.37;;;;;;;;;;5049556;28;20250;-65
2021/03/15 03:02:13;;;;;;;9.57;3.60;;;;;;;;;;5049777;28;20248;-66
2021/03/15 03:04:39;;;;;;;7.73;3.87;;;;;;;;;;5048520;28;20674;-65
2021/03/15 03:07:05;;;;;;;10.23;3.43;;;;;;;;;;5049794;28;20186;-65
2021/03/15 03:09:31;;;;;;;9.37;3.40;;;;;;;;;;5048824;28;20197;-66
2021/03/15 03:11:56;;;;;;;5.20;3.87;;;;;;;;;;5048058;28;20189;-66
2021/03/15 03:14:22;;;;;;;11.50;4.10;;;;;;;;;;5046226;28;20186;-68
2021/03/15 03:16:48;;;;;;;6.27;3.60;;;;;;;;;;5046164;28;20220;-65
2021/03/15 03:19:15;;;;;;;7.93;3.93;;;;;;;;;;5042366;28;20197;-65
2021/03/15 03:21:41;;;;;;;8.60;3.97;;;;;;;;;;5044114;28;20212;-65
2021/03/15 03:24:07;;;;;;;7.83;4.80;;;;;;;;;;5048727;28;20178;-66
2021/03/15 03:26:32;;;;;;;8.37;4.03;;;;;;;;;;5049962;28;20264;-65
2021/03/15 03:28:58;;;;;;;8.83;4.93;;;;;;;;;;5049642;28;20177;-65
2021/03/15 03:31:24;;;;;;;15.37;5.30;;;;;;;;;;5048696;28;20444;-65
2021/03/15 03:33:49;;;;;;;14.20;5.10;;;;;;;;;;5046658;28;20236;-66
2021/03/15 03:36:15;;;;;;;11.20;5.60;;;;;;;;;;5043052;28;20643;-66
2021/03/15 03:38:41;;;;;;;12.27;5.70;;;;;;;;;;5046362;28;20304;-65
2021/03/15 03:41:07;;;;;;;18.77;7.13;;;;;;;;;;5039825;28;20200;-65
2021/03/15 03:43:32;;;;;;;13.77;5.30;;;;;;;;;;5040580;28;20206;-65
2021/03/15 03:45:57;;;;;;;12.07;4.87;;;;;;;;;;5038100;28;20224;-65
2021/03/15 03:48:22;;;;;;;13.40;5.23;;;;;;;;;;5052494;28;20181;-65
2021/03/15 03:50:47;;;;;;;10.93;4.17;;;;;;;;;;5038225;28;20201;-65
2021/03/15 03:53:19;;;;;;;9.60;4.67;;;;;;;;;;5052952;28;20667;-65
2021/03/15 03:55:51;;;;;;;12.90;4.90;;;;;;;;;;5054799;28;20181;-65
2021/03/15 03:58:17;;;;;;;9.43;4.87;;;;;;;;;;5046610;28;20185;-66
2021/03/15 04:00:43;;;;;;;12.17;4.83;;;;;;;;;;5051077;28;20204;-66
2021/03/15 04:03:17;;;;;;;12.10;5.50;;;;;;;;;;5052381;28;20284;-65
2021/03/15 04:05:44;;;;;;;10.03;5.87;;;;;;;;;;5051542;28;20186;-68
2021/03/15 04:08:10;;;;;;;14.30;5.80;;;;;;;;;;5043172;28;20180;-68
2021/03/15 04:10:36;;;;;;;17.77;7.40;;;;;;;;;;5048002;28;20285;-68
2021/03/15 04:13:07;;;;;;;11.57;7.07;;;;;;;;;;5052149;28;20265;-67
2021/03/15 04:15:32;;;;;;;15.40;7.40;;;;;;;;;;5049726;28;20546;-66
2021/03/15 04:17:58;;;;;;;9.93;6.83;;;;;;;;;;5045692;28;20178;-68
2021/03/15 04:20:27;;;;;;;15.23;6.77;;;;;;;;;;5055082;28;20230;-67
2021/03/15 04:22:54;;;;;;;11.23;5.90;;;;;;;;;;5051151;28;20663;-68
2021/03/15 04:25:21;;;;;;;13.13;5.90;;;;;;;;;;5051750;28;20722;-67
2021/03/15 04:27:50;;;;;;;12.20;5.53;;;;;;;;;;5051753;28;20196;-66
2021/03/15 04:30:16;;;;;;;9.30;5.40;;;;;;;;;;5052764;28;20193;-66
2021/03/15 04:32:42;;;;;;;15.20;7.70;;;;;;;;;;5052296;28;20323;-66
2021/03/15 04:35:07;;;;;;;10.27;5.80;;;;;;;;;;5051299;28;20182;-68
2021/03/15 04:37:33;;;;;;;10.37;5.90;;;;;;;;;;5053410;28;20678;-67
2021/03/15 04:39:58;;;;;;;12.03;5.63;;;;;;;;;;5052623;28;20620;-67
2021/03/15 04:42:23;;;;;;;13.07;5.70;;;;;;;;;;5050710;28;20237;-67
2021/03/15 04:44:50;;;;;;;9.00;6.07;;;;;;;;;;5052267;28;20188;-66
2021/03/15 04:47:15;;;;;;;11.00;4.83;;;;;;;;;;5050537;28;20201;-68
2021/03/15 04:49:40;;;;;;;12.83;5.13;;;;;;;;;;5050359;28;20686;-67
2021/03/15 04:52:06;;;;;;;13.77;5.30;;;;;;;;;;5041291;28;20217;-68
2021/03/15 04:54:31;;;;;;;10.80;4.83;;;;;;;;;;5050395;28;20272;-66
2021/03/15 04:56:57;;;;;;;11.57;5.10;;;;;;;;;;5047925;28;20232;-65
2021/03/15 04:59:22;;;;;;;14.13;6.50;;;;;;;;;;5047524;28;20289;-66
2021/03/15 05:01:48;;;;;;;8.20;4.27;;;;;;;;;;5048195;28;20331;-66
2021/03/15 05:04:13;;;;;;;9.87;4.67;;;;;;;;;;5046939;28;20174;-67
2021/03/15 05:06:40;;;;;;;8.47;5.00;;;;;;;;;;5048040;28;20265;-67
2021/03/15 05:09:07;;;;;;;9.77;4.50;;;;;;;;;;5050405;28;20610;-68
2021/03/15 05:11:33;;;;;;;13.63;4.87;;;;;;;;;;5043826;28;20201;-65
2021/03/15 05:13:59;;;;;;;11.50;5.03;;;;;;;;;;5047296;28;20269;-68
2021/03/15 05:16:25;;;;;;;9.73;4.13;;;;;;;;;;5050090;28;20178;-67
2021/03/15 05:18:51;;;;;;;10.70;5.20;;;;;;;;;;5050746;28;20216;-67
2021/03/15 05:21:17;;;;;;;10.83;4.67;;;;;;;;;;5046320;28;20223;-67
2021/03/15 05:23:42;;;;;;;10.57;4.23;;;;;;;;;;5043274;28;20260;-67
2021/03/15 05:26:09;;;;;;;9.53;4.10;;;;;;;;;;5049834;28;20169;-68
2021/03/15 05:28:35;;;;;;;11.97;4.80;;;;;;;;;;5047714;28;20189;-67
2021/03/15 05:31:02;;;;;;;11.37;4.57;;;;;;;;;;5027770;28;584204;-66
2021/03/15 05:33:27;;;;;;;8.90;4.13;;;;;;;;;;5039185;28;20182;-67
2021/03/15 05:35:54;;;;;;;13.87;4.77;;;;;;;;;;5050431;28;20180;-67
2021/03/15 05:38:19;;;;;;;9.73;3.53;;;;;;;;;;5047724;28;20186;-67
2021/03/15 05:40:46;;;;;;;12.80;3.40;;;;;;;;;;5045674;28;20205;-66
2021/03/15 05:43:11;;;;;;;12.73;3.63;;;;;;;;;;5050757;28;20686;-68
2021/03/15 05:45:42;;;;;;;7.03;3.43;;;;;;;;;;5055909;28;20216;-68
2021/03/15 05:48:26;;;;;;;7.80;3.37;;;;;;;;;;5048078;28;20181;-67
2021/03/15 05:51:10;;;;;;;12.67;4.00;;;;;;;;;;5052784;28;20593;-67
2021/03/15 05:53:54;;;;;;;15.17;4.47;;;;;;;;;;5049118;28;20181;-67
2021/03/15 05:56:22;;;;;;;11.77;4.00;;;;;;;;;;5044010;28;20173;-67
2021/03/15 05:58:47;;;;;;;11.67;3.77;;;;;;;;;;5044923;28;20642;-67
2021/03/15 06:01:15;;;;;;;9.82;3.28;;;;;;;;;;5046118;28;20225;-67
2021/03/15 06:03:46;;;;;;;8.23;3.67;;;;;;;;;;5036424;28;20232;-68
2021/03/15 06:06:15;;;;;;;10.70;3.50;;;;;;;;;;5049996;28;20639;-67
2021/03/15 06:08:44;;;;;;;10.37;3.60;;;;;;;;;;5051262;28;20541;-67
2021/03/15 06:11:16;;;;;;;10.87;3.20;;;;;;;;;;5041713;28;20180;-67
2021/03/15 06:13:42;;;;;;;6.67;2.97;;;;;;;;;;5045702;28;20189;-68
2021/03/15 06:16:08;;;;;;;11.57;3.20;;;;;;;;;;5052138;28;20177;-67
2021/03/15 06:18:34;;;;;;;10.70;3.70;;;;;;;;;;5047038;28;20411;-68
2021/03/15 06:20:59;;;;;;;8.57;3.10;;;;;;;;;;5047084;28;20223;-67
2021/03/15 06:23:25;;;;;;;8.63;3.20;;;;;;;;;;5048652;28;20573;-68
2021/03/15 06:25:50;;;;;;;14.73;3.57;;;;;;;;;;5050004;28;20178;-68
2021/03/15 06:28:16;;;;;;;11.20;3.33;;;;;;;;;;5051115;28;20178;-67
2021/03/15 06:30:42;;;;;;;11.20;5.13;;;;;;;;;;5046951;28;20194;-68
2021/03/15 06:33:08;;;;;;;5.73;3.17;;;;;;;;;;5051562;28;20272;-68
2021/03/15 06:35:37;;;;;;;13.63;3.13;;;;;;;;;;5036491;28;20274;-67
2021/03/15 06:38:04;;;;;;;14.70;3.60;;;;;;;;;;5050882;28;20268;-68
2021/03/15 06:40:29;;;;;;;17.37;4.17;;;;;;;;;;5034826;28;20767;-65
2021/03/15 06:42:56;;;;;;;11.40;3.97;;;;;;;;;;5041162;28;20284;-66
2021/03/15 06:45:21;;;;;;;12.00;4.40;;;;;;;;;;5041584;28;20195;-67
2021/03/15 06:47:48;;;;;;;13.20;3.93;;;;;;;;;;5040242;28;20269;-67
2021/03/15 06:50:13;;;;;;;15.83;3.63;;;;;;;;;;5052929;28;20657;-67
2021/03/15 06:52:54;;;;;;;9.63;4.87;;;;;;;;;;5042079;28;20264;-67
2021/03/15 06:55:20;;;;;;;14.30;3.27;;;;;;;;;;5049414;28;20188;-67
2021/03/15 06:57:45;;;;;;;12.77;3.33;;;;;;;;;;5047255;28;20272;-67
2021/03/15 07:00:10;;;;;;;15.60;3.57;;;;;;;;;;5044699;28;20247;-66
2021/03/15 07:02:36;;;;;;;9.80;3.00;;;;;;;;;;5037894;28;20256;-66
2021/03/15 07:05:12;;;;;;;17.50;3.40;;;;;;;;;;5047187;28;20174;-66
2021/03/15 07:07:57;;;;;;;10.27;3.17;;;;;;;;;;5043221;28;20252;-66
2021/03/15 07:10:25;;;;;;;12.70;2.97;;;;;;;;;;5041294;28;20206;-67
2021/03/15 07:13:06;;;;;;;14.47;2.93;;;;;;;;;;5045187;28;20188;-67
2021/03/15 07:15:34;;;;;;;10.67;3.10;;;;;;;;;;5049606;28;20229;-67
2021/03/15 07:18:16;;;;;;;14.50;4.20;;;;;;;;;;5038986;28;20590;-67
2021/03/15 07:20:43;;;;;;;19.10;2.93;;;;;;;;;;5042879;28;20228;-67
2021/03/15 07:23:08;;;;;;;14.03;3.43;;;;;;;;;;5040046;28;20682;-66
2021/03/15 07:25:33;;;;;;;11.87;2.93;;;;;;;;;;5037525;28;20178;-67
2021/03/15 07:28:00;;;;;;;12.40;3.10;;;;;;;;;;5037674;28;20174;-67
2021/03/15 07:30:29;;;;;;;10.13;3.37;;;;;;;;;;5036864;28;20228;-65
2021/03/15 07:32:55;;;;;;;21.33;3.07;;;;;;;;;;5036942;28;20294;-67
2021/03/15 07:35:24;;;;;;;16.47;2.83;;;;;;;;;;5037302;28;20239;-66
2021/03/15 07:37:49;;;;;;;17.53;3.00;;;;;;;;;;5035399;28;20182;-67
2021/03/15 07:40:29;;;;;;;15.90;3.10;;;;;;;;;;5042672;28;20627;-66
2021/03/15 07:42:58;;;;;;;19.40;3.93;;;;;;;;;;5046815;28;20298;-67
2021/03/15 07:45:30;;;;;;;11.27;2.23;;;;;;;;;;5043336;28;20710;-67
2021/03/15 07:48:04;;;;;;;17.07;3.20;;;;;;;;;;5049821;28;20185;-66
2021/03/15 07:50:29;;;;;;;18.93;3.07;;;;;;;;;;5049352;28;20197;-67
2021/03/15 07:52:54;;;;;;;20.87;3.27;;;;;;;;;;5049685;28;20185;-67
2021/03/15 07:55:31;;;;;;;16.33;4.20;;;;;;;;;;5048195;28;20681;-67
2021/03/15 07:57:56;;;;;;;9.80;2.43;;;;;;;;;;5051878;28;20182;-67
2021/03/15 08:00:21;;;;;;;10.82;2.60;;;;;;;;;;5039796;28;20206;-66
2021/03/15 08:02:46;;;;;;;12.87;2.23;;;;;;;;;;5040415;28;20206;-66
2021/03/15 08:05:12;;;;;;;6.73;1.50;;;;;;;;;;5046675;28;20178;-66
2021/03/15 08:07:37;;;;;;;11.17;1.60;;;;;;;;;;5039980;28;20718;-65
2021/03/15 08:10:03;;;;;;;5.77;1.30;;;;;;;;;;5044129;28;20279;-66
2021/03/15 08:12:29;;;;;;;15.27;2.37;;;;;;;;;;5041282;28;20565;-67
2021/03/15 08:14:59;;;;;;;7.43;2.43;;;;;;;;;;5032575;28;20174;-67
2021/03/15 08:17:24;;;;;;;17.10;1.93;;;;;;;;;;5046404;28;20186;-67
2021/03/15 08:19:49;;;;;;;8.77;3.73;;;;;;;;;;5042225;28;20259;-67
2021/03/15 08:22:20;;;;;;;7.57;1.60;;;;;;;;;;5044509;28;20284;-67
2021/03/15 08:24:46;;;;;;;5.07;1.23;;;;;;;;;;5020218;28;20244;-66
2021/03/15 08:27:11;;;;;;;6.93;2.00;;;;;;;;;;5027213;28;20185;-67
2021/03/15 08:29:38;;;;;;;9.03;2.20;;;;;;;;;;5027420;28;20190;-67
2021/03/15 08:32:05;;;;;;;5.33;1.57;;;;;;;;;;5032252;28;20238;-66
2021/03/15 08:34:31;;;;;;;13.07;2.10;;;;;;;;;;5042411;28;20178;-66
2021/03/15 08:36:56;;;;;;;11.27;2.67;;;;;;;;;;5030744;28;21450;-67
2021/03/15 08:39:27;;;;;;;4.93;2.53;;;;;;;;;;5033281;28;20762;-67
2021/03/15 08:42:11;;;;;;;6.47;1.57;;;;;;;;;;5041549;28;20201;-65
2021/03/15 08:44:37;;;;;;;6.37;1.40;;;;;;;;;;5028191;28;20575;-67
2021/03/15 08:47:03;;;;;;;6.03;1.77;;;;;;;;;;5035645;28;20196;-67
2021/03/15 08:49:30;;;;;;;13.03;1.70;;;;;;;;;;5055553;28;20255;-67
2021/03/15 08:51:56;;;;;;;13.93;3.33;;;;;;;;;;5047052;28;20935;-67
2021/03/15 08:54:35;;;;;;;11.07;2.00;;;;;;;;;;5041588;28;20185;-66
2021/03/15 08:57:01;;;;;;;10.40;3.17;;;;;;;;;;5026816;28;20243;-67
2021/03/15 08:59:29;;;;;;;10.27;2.77;;;;;;;;;;5024900;28;20281;-67
2021/03/15 09:01:56;;;;;;;10.30;1.90;;;;;;;;;;5024224;28;20206;-66
2021/03/15 09:04:39;;;;;;;11.93;2.87;;;;;;;;;;5032250;28;20651;-66
2021/03/15 09:07:25;;;;;;;8.23;2.17;;;;;;;;;;5027159;28;20178;-67
2021/03/15 09:09:50;;;;;;;6.43;2.60;;;;;;;;;;5026087;28;22152;-66
2021/03/15 09:12:18;;;;;;;9.00;2.10;;;;;;;;;;5030253;28;20200;-66
2021/03/15 09:14:52;;;;;;;8.13;2.40;;;;;;;;;;5034139;28;20594;-66
2021/03/15 09:17:17;;;;;;;10.87;3.20;;;;;;;;;;5031240;28;20748;-66
2021/03/15 09:19:47;;;;;;;11.10;2.75;;;;;;;;;;5045793;28;20193;-67
2021/03/15 09:22:30;;;;;;;13.17;2.73;;;;;;;;;;5038429;28;20210;-67
2021/03/15 09:24:56;;;;;;;12.60;2.30;;;;;;;;;;5035709;28;20219;-67
2021/03/15 09:27:32;;;;;;;7.67;1.60;;;;;;;;;;5028568;28;20819;-66
2021/03/15 09:30:02;;;;;;;11.80;2.37;;;;;;;;;;5025298;28;21491;-65
2021/03/15 09:32:37;;;;;;;9.50;3.30;;;;;;;;;;5025614;28;20694;-65
2021/03/15 09:35:13;;;;;;;3.93;2.03;;;;;;;;;;5025140;28;20256;-66
2021/03/15 09:37:46;;;;;;;4.93;1.80;;;;;;;;;;5030093;28;20217;-67
2021/03/15 09:40:12;;;;;;;11.53;2.23;;;;;;;;;;5044648;28;20212;-65
2021/03/15 09:42:40;;;;;;;5.90;1.60;;;;;;;;;;5037474;28;20534;-65
2021/03/15 09:45:06;;;;;;;6.67;1.97;;;;;;;;;;5024914;28;20198;-66
2021/03/15 09:47:31;;;;;;;8.23;1.93;;;;;;;;;;5024181;28;20206;-67
2021/03/15 09:49:57;;;;;;;4.67;1.23;;;;;;;;;;5025218;28;20594;-65
2021/03/15 09:52:23;;;;;;;5.57;1.60;;;;;;;;;;5028083;28;20181;-65
2021/03/15 09:54:52;;;;;;;10.00;1.30;;;;;;;;;;5022690;28;21887;-65
2021/03/15 09:57:18;;;;;;;4.87;1.97;;;;;;;;;;5027006;28;20182;-65
2021/03/15 09:59:43;;;;;;;6.30;1.50;;;;;;;;;;5024016;28;20405;-65
2021/03/15 10:02:09;;;;;;;8.37;1.70;;;;;;;;;;5024409;28;20629;-64
2021/03/15 10:04:38;;;;;;;7.87;2.10;;;;;;;;;;5024933;28;20182;-66
2021/03/15 10:07:06;;;;;;;7.37;1.63;;;;;;;;;;5045658;28;20181;-65
2021/03/15 10:09:32;;;;;;;7.43;2.33;;;;;;;;;;5024761;28;20299;-65
2021/03/15 10:11:58;;;;;;;12.17;2.27;;;;;;;;;;5026587;28;20198;-66
2021/03/15 10:14:24;;;;;;;13.10;1.80;;;;;;;;;;5031884;28;20189;-66
2021/03/15 10:17:00;;;;;;;10.63;1.90;;;;;;;;;;5041873;28;20269;-67
2021/03/15 10:19:27;;;;;;;9.80;2.10;;;;;;;;;;5025856;28;20639;-66
2021/03/15 10:21:53;;;;;;;10.10;1.90;;;;;;;;;;5024976;28;20260;-65
2021/03/15 10:24:31;;;;;;;10.70;1.90;;;;;;;;;;5031760;28;20675;-65
2021/03/15 10:26:57;;;;;;;9.03;1.97;;;;;;;;;;5023467;28;20332;-66
2021/03/15 10:29:23;;;;;;;7.07;1.90;;;;;;;;;;5023045;28;20224;-64
2021/03/15 10:31:48;;;;;;;7.13;2.30;;;;;;;;;;5023980;28;20230;-66
2021/03/15 10:34:14;;;;;;;4.53;1.70;;;;;;;;;;5048064;28;20185;-67
2021/03/15 10:36:41;;;;;;;11.27;1.97;;;;;;;;;;5047899;28;20174;-67
2021/03/15 10:39:06;;;;;;;6.70;1.43;;;;;;;;;;5025540;28;20206;-67
2021/03/15 10:41:31;;;;;;;21.57;3.00;;;;;;;;;;5026413;28;20220;-66
2021/03/15 10:43:56;;;;;;;9.10;1.97;;;;;;;;;;5041959;28;20628;-65
2021/03/15 10:46:23;;;;;;;5.63;1.47;;;;;;;;;;5028695;28;20231;-66
2021/03/15 10:48:49;;;;;;;7.53;1.97;;;;;;;;;;5022689;28;20186;-66
2021/03/15 10:51:14;;;;;;;6.73;1.70;;;;;;;;;;5024000;28;20197;-65
2021/03/15 10:53:46;;;;;;;8.43;1.37;;;;;;;;;;5025254;28;20249;-66
2021/03/15 10:56:21;;;;;;;10.60;2.03;;;;;;;;;;5024124;28;20211;-65
2021/03/15 10:58:48;;;;;;;14.07;4.90;;;;;;;;;;5048743;28;20589;-66
2021/03/15 11:01:19;;;;;;;7.50;2.07;;;;;;;;;;5049124;28;20202;-65
2021/03/15 11:03:44;;;;;;;6.87;1.40;;;;;;;;;;5025833;28;20625;-65
2021/03/15 11:06:13;;;;;;;7.40;2.17;;;;;;;;;;5023860;28;20325;-65
2021/03/15 11:08:38;;;;;;;5.13;1.43;;;;;;;;;;5024715;28;20170;-66
2021/03/15 11:11:17;;;;;;;9.20;1.63;;;;;;;;;;5024801;28;20617;-66
2021/03/15 11:13:43;;;;;;;9.53;2.83;;;;;;;;;;5037710;28;20230;-65
2021/03/15 11:16:18;;;;;;;7.30;1.73;;;;;;;;;;5024237;28;20181;-67
2021/03/15 11:18:43;;;;;;;5.10;1.33;;;;;;;;;;5027870;28;20264;-66
2021/03/15 11:21:10;;;;;;;6.00;1.60;;;;;;;;;;5021816;28;20205;-65
2021/03/15 11:23:37;;;;;;;6.93;1.77;;;;;;;;;;5023232;28;20557;-66
2021/03/15 11:26:13;;;;;;;11.90;1.80;;;;;;;;;;5022946;28;20700;-67
2021/03/15 11:28:43;;;;;;;8.73;1.60;;;;;;;;;;5029575;28;20192;-66
2021/03/15 11:31:18;;;;;;;12.93;2.53;;;;;;;;;;5023100;28;20197;-67
2021/03/15 11:33:56;;;;;;;12.27;2.33;;;;;;;;;;5027719;28;20197;-67
2021/03/15 11:36:22;;;;;;;8.77;2.63;;;;;;;;;;5022638;28;20193;-67
2021/03/15 11:38:48;;;;;;;10.07;1.90;;;;;;;;;;5020237;28;20645;-66
2021/03/15 11:41:17;;;;;;;8.10;2.00;;;;;;;;;;5022590;28;20658;-66
2021/03/15 11:43:42;;;;;;;12.17;1.93;;;;;;;;;;5022184;28;20477;-68
2021/03/15 11:46:07;;;;;;;12.63;1.93;;;;;;;;;;5028372;28;20185;-67
2021/03/15 11:48:32;;;;;;;9.27;2.17;;;;;;;;;;5026267;28;20598;-69
2021/03/15 11:50:58;;;;;;;14.20;2.33;;;;;;;;;;5025800;28;20195;-68
2021/03/15 11:53:23;;;;;;;8.23;1.83;;;;;;;;;;5026287;28;20888;-67
2021/03/15 11:55:48;;;;;;;9.90;2.27;;;;;;;;;;5026973;28;20234;-66
2021/03/15 11:58:13;;;;;;;6.60;1.33;;;;;;;;;;5028461;28;20189;-68
2021/03/15 12:00:38;;;;;;;11.77;1.87;;;;;;;;;;5021739;28;20354;-64
2021/03/15 12:03:04;;;;;;;10.43;2.87;;;;;;;;;;5028183;28;20282;-66
2021/03/15 12:05:29;;;;;;;11.10;2.80;;;;;;;;;;5028404;28;20794;-65
2021/03/15 12:07:54;;;;;;;7.17;2.57;;;;;;;;;;5033315;28;20189;-66
2021/03/15 12:10:19;;;;;;;8.80;1.93;;;;;;;;;;5028970;28;20206;-65
2021/03/15 12:12:44;;;;;;;12.03;2.60;;;;;;;;;;5027676;28;20261;-66
2021/03/15 12:15:12;;;;;;;10.60;2.20;;;;;;;;;;5030166;28;20278;-66
2021/03/15 12:17:37;;;;;;;7.93;2.20;;;;;;;;;;5034416;28;20209;-65
2021/03/15 12:20:04;;;;;;;9.37;2.00;;;;;;;;;;5044673;28;21533;-65
2021/03/15 12:22:29;;;;;;;10.47;2.80;;;;;;;;;;5029348;28;20899;-66
2021/03/15 12:24:55;;;;;;;11.63;2.63;;;;;;;;;;5028612;28;20182;-66
2021/03/15 12:27:20;;;;;;;8.23;2.07;;;;;;;;;;5026304;28;20648;-64
2021/03/15 12:29:45;;;;;;;9.57;2.30;;;;;;;;;;5026981;28;20706;-66
2021/03/15 12:32:10;;;;;;;15.67;2.40;;;;;;;;;;5028640;28;20189;-66
2021/03/15 12:34:36;;;;;;;14.37;3.23;;;;;;;;;;5028747;28;20194;-67
2021/03/15 12:37:02;;;;;;;14.23;3.17;;;;;;;;;;5030951;28;20185;-67
2021/03/15 12:39:27;;;;;;;9.87;2.90;;;;;;;;;;5027414;28;20218;-67
2021/03/15 12:41:53;;;;;;;8.27;2.70;;;;;;;;;;5030341;28;20178;-66
2021/03/15 12:44:18;;;;;;;13.60;2.47;;;;;;;;;;5025331;28;20183;-66
2021/03/15 12:46:43;;;;;;;10.73;1.77;;;;;;;;;;5033566;28;20736;-66
2021/03/15 12:49:08;;;;;;;10.83;2.20;;;;;;;;;;5027419;28;20197;-65
2021/03/15 12:51:34;;;;;;;6.17;2.57;;;;;;;;;;5026773;28;20175;-68
2021/03/15 12:54:00;;;;;;;14.93;3.67;;;;;;;;;;5027912;28;22215;-67
2021/03/15 12:56:25;;;;;;;14.80;5.00;;;;;;;;;;5030322;28;20193;-68
2021/03/15 12:58:51;;;;;;;9.90;2.77;;;;;;;;;;5026968;28;21409;-68
2021/03/15 13:01:16;;;;;;;8.67;2.43;;;;;;;;;;5027159;28;20580;-67
2021/03/15 13:03:41;;;;;;;7.47;2.20;;;;;;;;;;5026376;28;20216;-68
2021/03/15 13:06:06;;;;;;;11.87;3.47;;;;;;;;;;5030470;28;20220;-68
2021/03/15 13:08:32;;;;;;;9.43;2.50;;;;;;;;;;5031260;28;20230;-67
2021/03/15 13:10:57;;;;;;;11.77;2.80;;;;;;;;;;5025412;28;20198;-67
2021/03/15 13:13:22;;;;;;;9.60;2.93;;;;;;;;;;5035113;28;20579;-66
2021/03/15 13:15:47;;;;;;;11.73;2.70;;;;;;;;;;5028034;28;20204;-65
2021/03/15 13:18:13;;;;;;;12.43;2.83;;;;;;;;;;5025908;28;20886;-66
2021/03/15 13:20:38;;;;;;;9.47;1.90;;;;;;;;;;5026420;28;20205;-67
2021/03/15 13:23:03;;;;;;;7.43;1.93;;;;;;;;;;5027176;28;20198;-66
2021/03/15 13:25:29;;;;;;;16.43;3.17;;;;;;;;;;5026490;28;20174;-67
2021/03/15 13:27:54;;;;;;;8.03;2.10;;;;;;;;;;5041149;28;20532;-66
2021/03/15 13:30:19;;;;;;;9.77;1.70;;;;;;;;;;5046970;28;20201;-65
2021/03/15 13:32:44;;;;;;;13.73;2.00;;;;;;;;;;5030346;28;20263;-66
2021/03/15 13:35:10;;;;;;;15.30;2.47;;;;;;;;;;5028730;28;20201;-65
2021/03/15 13:37:35;;;;;;;10.07;1.90;;;;;;;;;;5030004;28;20520;-65
2021/03/15 13:40:00;;;;;;;8.13;1.87;;;;;;;;;;5026352;28;20285;-65
2021/03/15 13:42:25;;;;;;;13.87;2.70;;;;;;;;;;5027183;28;20224;-65
2021/03/15 13:44:51;;;;;;;13.03;2.23;;;;;;;;;;5025359;28;20190;-66
2021/03/15 13:47:16;;;;;;;11.47;2.47;;;;;;;;;;5035231;28;20173;-65
2021/03/15 13:49:42;;;;;;;9.33;2.50;;;;;;;;;;5034237;28;20339;-66
2021/03/15 13:52:07;;;;;;;10.13;2.10;;;;;;;;;;5032680;28;20189;-66
2021/03/15 13:54:32;;;;;;;10.60;1.90;;;;;;;;;;5026074;28;20178;-66
2021/03/15 13:56:57;;;;;;;10.33;1.90;;;;;;;;;;5024822;28;20717;-66
2021/03/15 13:59:22;;;;;;;10.27;1.73;;;;;;;;;;5024577;28;20695;-66
2021/03/15 14:01:48;;;;;;;12.77;2.80;;;;;;;;;;5030222;28;20216;-67
2021/03/15 14:04:13;;;;;;;7.33;2.30;;;;;;;;;;5025291;28;20323;-66
2021/03/15 14:06:38;;;;;;;16.50;2.77;;;;;;;;;;5027891;28;20186;-69
2021/03/15 14:09:03;;;;;;;9.93;2.20;;;;;;;;;;5032764;28;20227;-66
2021/03/15 14:11:28;;;;;;;13.23;3.03;;;;;;;;;;5025856;28;20258;-66
2021/03/15 14:13:54;;;;;;;14.60;2.97;;;;;;;;;;5026140;28;20644;-67
2021/03/15 14:16:19;;;;;;;15.23;3.17;;;;;;;;;;5025041;28;20190;-69
2021/03/15 14:18:44;;;;;;;14.73;3.20;;;;;;;;;;5026865;28;20182;-68
2021/03/15 14:21:09;;;;;;;13.23;2.37;;;;;;;;;;5025166;28;20730;-69
2021/03/15 14:23:34;;;;;;;12.60;3.13;;;;;;;;;;5028711;28;20197;-67
2021/03/15 14:26:00;;;;;;;14.43;2.83;;;;;;;;;;5024411;28;20676;-68
2021/03/15 14:28:25;;;;;;;15.00;3.57;;;;;;;;;;5027013;28;20182;-68
2021/03/15 14:30:53;;;;;;;14.77;2.90;;;;;;;;;;5028589;28;20197;-69
2021/03/15 14:33:19;;;;;;;15.17;3.63;;;;;;;;;;5022139;28;20186;-68
2021/03/15 14:35:44;;;;;;;13.20;3.87;;;;;;;;;;5042925;28;20189;-66